Time;durP1;ratioP1;P1;durP2;ratioP2;P2;SDS_P1;SDS_P2;PMS_P1;PMS_P2;Temp;Humidity;BMP_temperature;BMP_pressure;BME280_temperature;BME280_humidity;BME280_pressure;Samples;Min_cycle;Max_cycle;Signal;HPM_P1;HPM_P2
2021/12/27 00:01:07;;;;;;;37.03;22.08;;;;;;;1.93;90.86;100177.72;4912525;28;20046;-71
2021/12/27 00:03:33;;;;;;;28.40;19.83;;;;;;;1.93;90.49;100174.28;4947996;28;20479;-70
2021/12/27 00:05:59;;;;;;;31.95;23.00;;;;;;;1.93;91.10;100174.28;4947716;28;20035;-70
2021/12/27 00:08:25;;;;;;;28.25;18.17;;;;;;;1.95;90.48;100167.41;4938030;28;20035;-70
2021/12/27 00:10:51;;;;;;;31.15;19.88;;;;;;;1.97;90.71;100169.16;4935166;29;20123;-70
2021/12/27 00:13:16;;;;;;;28.23;18.40;;;;;;;1.99;90.97;100164.00;4931066;28;20039;-70
2021/12/27 00:15:44;;;;;;;27.42;19.17;;;;;;;1.97;90.32;100171.75;4952029;28;20033;-70
2021/12/27 00:18:14;;;;;;;26.33;18.90;;;;;;;1.99;90.45;100164.00;4951371;28;20031;-70
2021/12/27 00:20:40;;;;;;;39.08;21.38;;;;;;;1.97;91.67;100171.75;4931921;28;20070;-70
2021/12/27 00:23:06;;;;;;;24.80;17.27;;;;;;;1.97;91.63;100166.56;4920052;28;20049;-71
2021/12/27 00:25:34;;;;;;;34.58;22.35;;;;;;;1.93;91.60;100167.38;4934619;28;20043;-70
2021/12/27 00:27:59;;;;;;;34.45;21.73;;;;;;;1.95;91.88;100160.50;4917357;28;20043;-71
2021/12/27 00:30:25;;;;;;;52.92;29.38;;;;;;;1.96;91.40;100157.06;4937762;28;20081;-71
2021/12/27 00:32:51;;;;;;;52.08;29.02;;;;;;;1.95;92.07;100152.75;4934813;28;20100;-71
2021/12/27 00:35:22;;;;;;;26.83;19.98;;;;;;;1.97;91.47;100151.06;4943497;28;20071;-71
2021/12/27 00:37:48;;;;;;;34.88;22.52;;;;;;;1.99;92.19;100146.78;4947163;28;20427;-71
2021/12/27 00:40:15;;;;;;;44.08;25.42;;;;;;;2.00;91.50;100148.53;4950739;28;20022;-71
2021/12/27 00:42:43;;;;;;;133.60;61.08;;;;;;;1.98;92.79;100150.19;4937189;28;20031;-71
2021/12/27 00:45:10;;;;;;;86.88;45.22;;;;;;;1.97;93.23;100145.91;4945934;28;20078;-70
2021/12/27 00:47:35;;;;;;;37.15;22.33;;;;;;;2.00;92.52;100142.50;4935553;28;20394;-71
2021/12/27 00:50:03;;;;;;;31.10;19.27;;;;;;;2.01;91.99;100141.63;4952488;28;20039;-71
2021/12/27 00:52:28;;;;;;;27.00;18.00;;;;;;;2.03;92.03;100130.47;4970549;28;20042;-70
2021/12/27 00:54:53;;;;;;;30.38;20.50;;;;;;;2.05;92.04;100128.78;4936055;28;20038;-71
2021/12/27 00:57:21;;;;;;;27.30;18.35;;;;;;;2.07;91.74;100134.81;4954746;28;20109;-71
2021/12/27 00:59:46;;;;;;;28.52;17.88;;;;;;;2.07;91.94;100132.22;4933602;28;20033;-70
2021/12/27 01:02:12;;;;;;;24.80;16.98;;;;;;;2.11;91.85;100125.38;4972428;28;20031;-70
2021/12/27 01:04:37;;;;;;;34.85;19.02;;;;;;;2.14;91.77;100119.38;4949947;28;20113;-70
2021/12/27 01:07:03;;;;;;;29.80;20.20;;;;;;;2.13;91.40;100115.94;4954079;28;20038;-71
2021/12/27 01:09:45;;;;;;;29.67;19.33;;;;;;;2.13;91.23;100115.06;4966917;28;20106;-70
2021/12/27 01:15:08;;;;;;;27.70;17.98;;;;;;;2.15;91.44;100114.22;4960242;28;20442;-70
2021/12/27 01:17:38;;;;;;;29.13;18.58;;;;;;;2.13;91.49;100109.91;4972064;28;20037;-70
2021/12/27 01:20:08;;;;;;;25.45;17.10;;;;;;;2.16;91.85;100121.13;4959044;28;20069;-71
2021/12/27 01:22:34;;;;;;;43.50;24.83;;;;;;;2.14;92.32;100111.63;4966331;28;20038;-71
2021/12/27 01:24:59;;;;;;;28.83;18.55;;;;;;;2.17;91.72;100109.94;4928969;28;20050;-70
2021/12/27 01:27:25;;;;;;;29.52;18.42;;;;;;;2.19;91.44;100117.72;4939861;28;20355;-70
2021/12/27 01:29:51;;;;;;;26.95;17.88;;;;;;;2.18;92.25;100113.38;4958808;28;20030;-71
2021/12/27 01:32:16;;;;;;;25.67;18.10;;;;;;;2.20;91.96;100109.97;4970587;28;20033;-70
2021/12/27 01:34:42;;;;;;;40.95;22.90;;;;;;;2.18;91.99;100123.72;4950660;28;20158;-71
2021/12/27 01:37:08;;;;;;;52.55;25.83;;;;;;;2.15;92.53;100111.63;4969748;28;20030;-71
2021/12/27 01:39:33;;;;;;;52.95;29.17;;;;;;;2.17;92.62;100106.47;4968846;28;20137;-70
2021/12/27 01:41:59;;;;;;;29.80;17.70;;;;;;;2.18;92.59;100100.47;4976426;28;20042;-70
2021/12/27 01:44:25;;;;;;;26.65;18.13;;;;;;;2.19;92.19;100094.44;4975266;28;20394;-71
2021/12/27 01:46:53;;;;;;;27.98;21.20;;;;;;;2.19;92.49;100097.03;4938243;28;20109;-70
2021/12/27 01:49:19;;;;;;;23.52;18.35;;;;;;;2.22;92.18;100095.34;4941709;28;20078;-71
2021/12/27 01:51:44;;;;;;;38.65;22.33;;;;;;;2.22;92.72;100092.75;4973010;28;20128;-70
2021/12/27 01:54:10;;;;;;;24.67;16.70;;;;;;;2.24;92.04;100085.88;4954855;28;20062;-71
2021/12/27 01:56:36;;;;;;;30.27;19.25;;;;;;;2.25;92.27;100091.91;4959717;28;20041;-71
2021/12/27 01:59:03;;;;;;;38.88;21.02;;;;;;;2.24;92.39;100090.16;4959374;28;20049;-71
2021/12/27 02:01:28;;;;;;;27.55;18.02;;;;;;;2.29;92.13;100093.69;4959797;28;20048;-70
2021/12/27 02:03:54;;;;;;;27.33;19.20;;;;;;;2.31;92.00;100094.56;4950334;28;20125;-71
2021/12/27 02:06:20;;;;;;;32.55;20.35;;;;;;;2.30;92.22;100092.84;4956517;28;20108;-71
2021/12/27 02:08:47;;;;;;;29.58;19.13;;;;;;;2.32;92.33;100096.28;4971072;28;20057;-71
2021/12/27 02:11:15;;;;;;;25.98;17.05;;;;;;;2.32;91.92;100087.69;4987826;28;20042;-71
2021/12/27 02:13:44;;;;;;;28.02;19.77;;;;;;;2.32;92.07;100092.84;4973343;28;20046;-71
2021/12/27 02:16:10;;;;;;;38.10;23.40;;;;;;;2.32;92.61;100095.44;4964492;28;20240;-71
2021/12/27 02:18:37;;;;;;;33.17;16.17;;;;;;;2.35;92.18;100095.47;4947519;28;20046;-70
2021/12/27 02:21:03;;;;;;;29.40;16.58;;;;;;;2.36;92.13;100098.06;4951490;28;20552;-70
2021/12/27 02:23:28;;;;;;;26.15;18.02;;;;;;;2.35;92.47;100093.75;4952191;28;20050;-70
2021/12/27 02:25:54;;;;;;;50.80;29.45;;;;;;;2.34;92.90;100089.44;4967991;28;20542;-70
2021/12/27 02:28:20;;;;;;;25.42;18.70;;;;;;;2.39;92.52;100092.06;4958189;28;20096;-71
2021/12/27 02:30:50;;;;;;;25.92;18.05;;;;;;;2.40;92.71;100092.06;4967019;28;20022;-71
2021/12/27 02:33:16;;;;;;;29.27;19.73;;;;;;;2.39;92.69;100087.75;4969492;28;20039;-71
2021/12/27 02:35:47;;;;;;;31.13;19.35;;;;;;;2.38;93.01;100090.31;4968880;28;20026;-71
2021/12/27 02:38:16;;;;;;;28.75;19.23;;;;;;;2.41;92.15;100078.31;4964835;28;20037;-71
2021/12/27 02:40:42;;;;;;;27.15;17.58;;;;;;;2.41;92.94;100085.19;4988820;28;20030;-71
2021/12/27 02:43:09;;;;;;;25.92;16.58;;;;;;;2.46;92.21;100078.34;4988288;28;20030;-71
2021/12/27 02:45:39;;;;;;;30.65;21.60;;;;;;;2.44;92.83;100077.44;4975303;28;20113;-71
2021/12/27 02:48:06;;;;;;;28.92;19.77;;;;;;;2.45;93.59;100079.19;4967253;28;20050;-71
2021/12/27 02:50:32;;;;;;;44.75;26.73;;;;;;;2.41;93.13;100075.72;4947859;28;20446;-71
2021/12/27 02:53:02;;;;;;;71.50;37.70;;;;;;;2.40;93.59;100076.56;4938672;28;20031;-71
2021/12/27 02:55:29;;;;;;;30.40;19.10;;;;;;;2.42;93.25;100074.00;4931968;28;20042;-71
2021/12/27 02:57:55;;;;;;;46.60;26.48;;;;;;;2.42;93.36;100069.66;4954947;28;20031;-71
2021/12/27 03:00:27;;;;;;;48.58;28.50;;;;;;;2.43;93.54;100074.00;4944655;28;20376;-71
2021/12/27 03:02:54;;;;;;;29.15;17.63;;;;;;;2.46;93.72;100059.34;4952500;28;20031;-71
2021/12/27 03:05:22;;;;;;;39.97;25.85;;;;;;;2.46;93.88;100059.34;4980536;28;20038;-71
2021/12/27 03:07:49;;;;;;;41.53;25.77;;;;;;;2.48;93.42;100073.19;4952295;28;20034;-71
2021/12/27 03:10:17;;;;;;;55.25;31.10;;;;;;;2.47;94.64;100068.84;4946494;28;20039;-71
2021/12/27 03:12:45;;;;;;;72.75;42.05;;;;;;;2.47;93.80;100067.16;4949105;28;20034;-71
2021/12/27 03:15:12;;;;;;;43.55;27.13;;;;;;;2.50;94.22;100061.09;4950499;28;20070;-71
2021/12/27 03:17:38;;;;;;;29.83;19.75;;;;;;;2.50;94.33;100063.69;4942518;29;20518;-71
2021/12/27 03:20:05;;;;;;;31.92;21.80;;;;;;;2.54;93.62;100060.28;4923477;28;20042;-71
2021/12/27 03:22:31;;;;;;;26.60;20.50;;;;;;;2.55;93.82;100052.53;4949497;28;20034;-71
2021/12/27 03:24:56;;;;;;;26.05;19.45;;;;;;;2.57;93.36;100049.97;4935094;28;20031;-72
2021/12/27 03:27:22;;;;;;;27.58;18.10;;;;;;;2.62;93.31;100058.63;4948415;28;20110;-71
2021/12/27 03:29:47;;;;;;;23.25;17.90;;;;;;;2.62;93.19;100050.03;4934490;28;20398;-71
2021/12/27 03:32:14;;;;;;;26.27;18.85;;;;;;;2.64;93.88;100059.50;4938094;28;20394;-71
2021/12/27 03:34:52;;;;;;;29.10;18.60;;;;;;;2.66;92.98;100051.75;4933499;28;20085;-71
2021/12/27 03:37:17;;;;;;;28.25;20.10;;;;;;;2.67;93.24;100050.91;4926375;28;20045;-71
2021/12/27 03:39:43;;;;;;;26.40;18.52;;;;;;;2.68;92.97;100058.69;4938493;28;20043;-71
2021/12/27 03:42:10;;;;;;;29.38;19.98;;;;;;;2.70;92.91;100058.69;4922339;28;20031;-70
2021/12/27 03:44:36;;;;;;;28.27;18.48;;;;;;;2.70;93.07;100054.41;4921940;28;20118;-71
2021/12/27 03:47:01;;;;;;;26.73;18.75;;;;;;;2.73;93.01;100051.84;4922313;28;20505;-71
2021/12/27 03:49:30;;;;;;;26.55;18.33;;;;;;;2.73;93.09;100044.06;4934296;28;20086;-71
2021/12/27 03:51:56;;;;;;;30.10;19.52;;;;;;;2.76;93.05;100044.09;4936452;28;20038;-70
2021/12/27 03:54:21;;;;;;;21.77;16.73;;;;;;;2.77;92.66;100048.41;4925000;28;20058;-71
2021/12/27 03:56:46;;;;;;;25.70;18.25;;;;;;;2.80;92.95;100044.97;4933476;28;20034;-71
2021/12/27 03:59:38;;;;;;;26.48;18.42;;;;;;;2.80;92.61;100037.19;4913771;28;20039;-71
2021/12/27 04:02:06;;;;;;;22.85;17.73;;;;;;;2.82;93.22;100034.66;4923648;28;20046;-71
2021/12/27 04:04:33;;;;;;;26.10;16.85;;;;;;;2.84;93.19;100031.19;4917438;28;20042;-71
2021/12/27 04:06:59;;;;;;;25.55;16.52;;;;;;;2.84;93.19;100026.03;4910397;28;20026;-71
2021/12/27 04:09:25;;;;;;;29.80;18.05;;;;;;;2.85;92.92;100020.00;4967574;28;20088;-71
2021/12/27 04:11:50;;;;;;;30.02;19.55;;;;;;;2.87;92.96;100013.09;4936506;28;20364;-71
2021/12/27 04:14:18;;;;;;;25.40;20.30;;;;;;;2.86;93.59;100018.25;4953521;28;20403;-71
2021/12/27 04:16:43;;;;;;;26.40;18.85;;;;;;;2.85;94.29;100008.78;4908525;28;20035;-71
2021/12/27 04:19:09;;;;;;;29.20;17.17;;;;;;;2.88;93.40;100012.25;4947755;28;20041;-71
2021/12/27 04:21:34;;;;;;;27.00;18.55;;;;;;;2.90;94.25;100015.72;4951703;28;20034;-71
2021/12/27 04:24:00;;;;;;;28.13;17.33;;;;;;;2.92;94.04;100007.97;4917616;28;20042;-71
2021/12/27 04:26:25;;;;;;;27.23;19.48;;;;;;;2.97;93.77;100013.16;4928363;28;20047;-71
2021/12/27 04:28:52;;;;;;;23.17;18.40;;;;;;;2.99;92.99;99998.50;4915472;29;20043;-71
2021/12/27 04:31:17;;;;;;;24.55;16.48;;;;;;;3.00;93.63;99989.88;4949987;28;20054;-71
2021/12/27 04:33:43;;;;;;;28.35;19.00;;;;;;;3.00;93.55;99984.72;4936028;28;20364;-71
2021/12/27 04:36:09;;;;;;;25.45;18.80;;;;;;;3.00;93.52;99987.31;4936313;28;20038;-71
2021/12/27 04:38:36;;;;;;;29.52;22.75;;;;;;;2.98;93.82;99991.63;4950332;28;20053;-71
2021/12/27 04:41:03;;;;;;;26.30;16.88;;;;;;;2.97;93.60;99993.31;4930753;28;20472;-71
2021/12/27 04:43:29;;;;;;;23.42;18.23;;;;;;;3.00;93.30;99984.72;4946121;28;20062;-71
2021/12/27 04:45:54;;;;;;;31.73;21.42;;;;;;;2.98;93.52;99978.69;4919797;28;20074;-71
2021/12/27 04:48:22;;;;;;;26.08;19.17;;;;;;;2.97;94.83;99982.97;4952892;28;20423;-71
2021/12/27 04:50:48;;;;;;;27.42;18.63;;;;;;;2.98;94.49;99989.88;4953394;28;20093;-71
2021/12/27 04:53:13;;;;;;;25.75;18.90;;;;;;;2.98;94.35;99982.13;4938221;28;20030;-71
2021/12/27 04:55:39;;;;;;;29.05;19.13;;;;;;;2.99;94.31;99988.16;4940464;28;20042;-71
2021/12/27 04:58:09;;;;;;;24.45;16.20;;;;;;;3.03;94.27;99982.13;4949968;28;20035;-71
2021/12/27 05:00:35;;;;;;;25.92;19.23;;;;;;;3.04;94.76;99983.88;4939351;28;20053;-71
2021/12/27 05:03:01;;;;;;;28.73;18.25;;;;;;;3.04;94.33;99974.38;4939944;28;20460;-71
2021/12/27 05:05:27;;;;;;;26.65;19.67;;;;;;;3.05;94.74;99978.69;4939200;28;20039;-71
2021/12/27 05:07:52;;;;;;;31.10;21.13;;;;;;;3.07;94.96;99978.72;4955864;28;20041;-71
2021/12/27 05:10:18;;;;;;;26.92;20.02;;;;;;;3.10;95.13;99978.72;4926021;28;20058;-71
2021/12/27 05:12:44;;;;;;;30.88;19.95;;;;;;;3.09;95.61;99974.41;4937315;28;20688;-71
2021/12/27 05:15:12;;;;;;;26.80;19.30;;;;;;;3.09;95.07;99977.88;4950919;28;20054;-71
2021/12/27 05:17:38;;;;;;;29.92;20.25;;;;;;;3.11;95.02;99978.72;4936173;28;20043;-71
2021/12/27 05:20:05;;;;;;;25.35;18.48;;;;;;;3.14;95.51;99975.28;4957323;28;20042;-72
2021/12/27 05:22:32;;;;;;;29.52;19.30;;;;;;;3.16;95.54;99972.72;4934375;28;20384;-71
2021/12/27 05:24:58;;;;;;;31.38;19.90;;;;;;;3.17;95.46;99975.28;4934058;28;20154;-72
2021/12/27 05:27:23;;;;;;;26.70;18.33;;;;;;;3.18;95.09;99965.81;4940700;28;20042;-72
2021/12/27 05:29:49;;;;;;;28.95;20.40;;;;;;;3.18;95.30;99968.41;4953938;28;20046;-71
2021/12/27 05:32:15;;;;;;;28.35;19.48;;;;;;;3.22;95.39;99967.53;4956882;28;20030;-71
2021/12/27 05:34:40;;;;;;;27.80;17.60;;;;;;;3.22;95.42;99962.38;4915592;28;20058;-71
2021/12/27 05:37:07;;;;;;;26.58;17.98;;;;;;;3.20;95.89;99959.78;4935577;28;20105;-71
2021/12/27 05:39:34;;;;;;;25.25;18.42;;;;;;;3.23;95.79;99966.69;4945734;28;20741;-71
2021/12/27 05:41:59;;;;;;;25.67;18.95;;;;;;;3.25;95.73;99962.41;4924702;28;20043;-71
2021/12/27 05:44:25;;;;;;;26.73;19.15;;;;;;;3.25;96.16;99965.00;4936124;29;20043;-72
2021/12/27 05:46:50;;;;;;;28.48;20.20;;;;;;;3.26;95.30;99964.13;4938980;28;20160;-71
2021/12/27 05:49:16;;;;;;;26.38;18.15;;;;;;;3.26;95.75;99952.06;4955681;28;20426;-71
2021/12/27 05:51:43;;;;;;;26.33;18.52;;;;;;;3.28;96.45;99954.66;4940229;28;20039;-71
2021/12/27 05:54:10;;;;;;;27.38;18.92;;;;;;;3.30;96.23;99950.31;4955325;28;20039;-71
2021/12/27 05:56:36;;;;;;;19.95;15.52;;;;;;;3.31;96.25;99952.06;4934589;28;20114;-72
2021/12/27 05:59:02;;;;;;;25.52;18.55;;;;;;;3.33;96.14;99955.50;4952943;28;20125;-71
2021/12/27 06:01:28;;;;;;;28.48;18.35;;;;;;;3.35;96.09;99958.09;4940392;28;20089;-72
2021/12/27 06:03:57;;;;;;;27.55;18.42;;;;;;;3.37;95.72;99951.22;4938558;28;20435;-72
2021/12/27 06:06:26;;;;;;;29.23;17.75;;;;;;;3.40;96.34;99959.84;4952676;28;20027;-72
2021/12/27 06:08:52;;;;;;;25.23;18.20;;;;;;;3.42;96.34;99958.16;4938791;28;20058;-71
2021/12/27 06:11:18;;;;;;;27.35;17.80;;;;;;;3.43;96.07;99956.41;4957049;28;20121;-72
2021/12/27 06:13:43;;;;;;;23.48;18.90;;;;;;;3.44;96.23;99961.59;4937490;28;20033;-72
2021/12/27 06:16:10;;;;;;;25.48;18.10;;;;;;;3.46;96.39;99952.13;4933440;28;20035;-72
2021/12/27 06:18:39;;;;;;;26.83;18.33;;;;;;;3.47;95.86;99966.78;4952271;28;20039;-71
2021/12/27 06:21:06;;;;;;;26.55;17.02;;;;;;;3.48;96.36;99965.06;4937651;28;20062;-71
2021/12/27 06:23:32;;;;;;;22.63;17.83;;;;;;;3.51;95.75;99967.66;4936801;28;20054;-71
2021/12/27 06:25:59;;;;;;;28.33;19.15;;;;;;;3.53;96.15;99957.31;4943091;28;20038;-71
2021/12/27 06:28:27;;;;;;;23.77;16.27;;;;;;;3.56;96.04;99957.31;4951178;28;20026;-71
2021/12/27 06:30:53;;;;;;;22.48;17.30;;;;;;;3.58;95.91;99955.59;4938975;28;20093;-71
2021/12/27 06:33:19;;;;;;;19.52;16.08;;;;;;;3.61;95.71;99956.47;4916314;28;20526;-71
2021/12/27 06:35:45;;;;;;;26.63;17.15;;;;;;;3.62;96.29;99963.38;4911731;28;20046;-71
2021/12/27 06:38:14;;;;;;;27.88;15.98;;;;;;;3.63;96.42;99952.16;4951763;28;20411;-71
2021/12/27 06:40:40;;;;;;;23.85;17.45;;;;;;;3.67;96.28;99950.44;4949773;28;20037;-71
2021/12/27 06:43:08;;;;;;;21.20;15.82;;;;;;;3.69;95.64;99958.22;4921769;28;20035;-71
2021/12/27 06:45:34;;;;;;;25.52;16.17;;;;;;;3.70;96.17;99955.63;4930181;28;20031;-71
2021/12/27 06:48:01;;;;;;;31.10;18.63;;;;;;;3.72;96.04;99951.31;4920105;28;20065;-71
2021/12/27 06:50:27;;;;;;;24.80;15.68;;;;;;;3.73;95.61;99949.59;4933847;28;20049;-71
2021/12/27 06:52:53;;;;;;;29.05;16.83;;;;;;;3.74;95.76;99947.00;4931000;28;20038;-71
2021/12/27 06:55:18;;;;;;;22.17;17.17;;;;;;;3.77;96.13;99941.81;4942715;28;20038;-71
2021/12/27 06:57:44;;;;;;;22.92;16.80;;;;;;;3.78;95.98;99942.69;4956728;28;20030;-71
2021/12/27 07:00:13;;;;;;;23.30;16.00;;;;;;;3.78;95.85;99940.97;4957445;28;20445;-71
2021/12/27 07:02:39;;;;;;;22.73;15.57;;;;;;;3.79;95.93;99932.31;4974489;28;20370;-71
2021/12/27 07:05:05;;;;;;;20.35;16.45;;;;;;;3.81;95.46;99934.91;4936986;28;20459;-71
2021/12/27 07:07:31;;;;;;;25.30;17.67;;;;;;;3.82;95.65;99931.44;4936260;28;20049;-71
2021/12/27 07:09:56;;;;;;;20.70;15.27;;;;;;;3.86;95.30;99929.72;4944081;28;20453;-71
2021/12/27 07:12:22;;;;;;;21.00;15.45;;;;;;;3.85;95.09;99934.06;4959965;28;20026;-71
2021/12/27 07:14:48;;;;;;;26.42;14.88;;;;;;;3.86;95.58;99930.59;4958870;28;20131;-71
2021/12/27 07:17:14;;;;;;;25.88;14.80;;;;;;;3.88;95.45;99928.00;4977231;28;20022;-71
2021/12/27 07:19:40;;;;;;;15.68;12.45;;;;;;;3.90;95.04;99921.09;4963180;28;20030;-71
2021/12/27 07:22:06;;;;;;;20.30;14.80;;;;;;;3.90;95.24;99927.13;4957982;28;20045;-71
2021/12/27 07:24:32;;;;;;;26.60;13.65;;;;;;;3.94;94.43;99928.03;4959612;28;20052;-71
2021/12/27 07:26:57;;;;;;;19.55;14.55;;;;;;;3.91;94.61;99920.25;4943650;28;20088;-71
2021/12/27 07:29:23;;;;;;;19.00;12.80;;;;;;;3.92;94.35;99919.34;4954307;28;20069;-70
2021/12/27 07:31:53;;;;;;;18.42;13.10;;;;;;;3.90;94.80;99921.09;4975865;28;20026;-70
2021/12/27 07:34:24;;;;;;;;;;;;;;;3.94;94.52;99922.84;4956746;28;20046;-71
2021/12/27 07:36:55;;;;;;;17.08;13.20;;;;;;;3.89;94.19;99924.56;4956059;28;19918;-71
2021/12/27 07:39:21;;;;;;;17.77;12.35;;;;;;;3.89;94.43;99920.22;4975219;28;20033;-71
2021/12/27 07:41:47;;;;;;;19.80;13.85;;;;;;;3.89;94.40;99917.63;4974749;28;20025;-71
2021/12/27 07:44:12;;;;;;;18.60;11.40;;;;;;;3.91;94.11;99912.47;4977708;28;20038;-71
2021/12/27 07:46:42;;;;;;;20.83;15.23;;;;;;;3.89;94.48;99903.81;4962151;28;20022;-71
2021/12/27 07:49:08;;;;;;;17.17;13.07;;;;;;;3.89;94.17;99914.19;4949966;28;20081;-71
2021/12/27 07:51:34;;;;;;;19.20;14.10;;;;;;;3.86;93.91;99914.19;4978408;28;20076;-71
2021/12/27 07:54:00;;;;;;;19.92;13.40;;;;;;;3.85;94.44;99913.31;4973413;28;20026;-71
2021/12/27 07:56:25;;;;;;;19.05;14.07;;;;;;;3.86;93.96;99914.19;4961254;28;20026;-71
2021/12/27 07:58:51;;;;;;;19.08;12.73;;;;;;;3.87;93.90;99916.78;4953275;28;20089;-71
2021/12/27 08:01:16;;;;;;;19.65;14.10;;;;;;;3.85;94.19;99907.25;4973451;28;20062;-71
2021/12/27 08:03:42;;;;;;;18.35;12.57;;;;;;;3.87;94.25;99905.56;4958033;28;20030;-71
2021/12/27 08:06:07;;;;;;;17.13;13.73;;;;;;;3.86;94.07;99917.63;4950494;28;20491;-71
2021/12/27 08:08:33;;;;;;;20.13;14.18;;;;;;;3.86;93.57;99924.56;4941832;28;20065;-71
2021/12/27 08:10:58;;;;;;;20.30;14.20;;;;;;;3.87;93.47;99921.09;4957299;28;20026;-71
2021/12/27 08:13:24;;;;;;;19.88;13.35;;;;;;;3.85;93.73;99921.09;4959178;28;20027;-71
2021/12/27 08:15:49;;;;;;;20.02;13.98;;;;;;;3.84;93.60;99921.09;4971393;28;20034;-71
2021/12/27 08:18:17;;;;;;;23.50;14.85;;;;;;;3.80;94.20;99921.06;4935063;28;20113;-71
2021/12/27 08:20:43;;;;;;;18.52;14.05;;;;;;;3.81;94.23;99924.56;4951034;28;20038;-71
2021/12/27 08:23:09;;;;;;;18.50;14.10;;;;;;;3.82;93.76;99926.25;4954992;28;20039;-71
2021/12/27 08:25:34;;;;;;;21.85;13.10;;;;;;;3.89;93.79;99927.13;4972611;28;20492;-70
2021/12/27 08:28:00;;;;;;;19.00;13.85;;;;;;;3.95;93.93;99924.53;4968226;28;20038;-71
2021/12/27 08:30:26;;;;;;;18.15;13.57;;;;;;;3.98;93.86;99925.44;4955091;28;20026;-70
2021/12/27 08:32:54;;;;;;;23.98;13.35;;;;;;;4.07;93.83;99918.53;4950703;28;20042;-71
2021/12/27 08:35:21;;;;;;;21.55;13.65;;;;;;;4.11;94.16;99918.50;4936045;28;20034;-70
2021/12/27 08:37:46;;;;;;;20.73;14.60;;;;;;;4.14;93.07;99915.91;4971928;28;20034;-71
2021/12/27 08:40:13;;;;;;;17.20;13.90;;;;;;;4.15;93.35;99915.06;4957242;28;20034;-71
2021/12/27 08:42:39;;;;;;;19.83;13.85;;;;;;;4.14;93.28;99921.09;4972384;28;20042;-71
2021/12/27 08:45:09;;;;;;;17.67;14.75;;;;;;;4.14;92.95;99923.69;4969604;28;20449;-71
2021/12/27 08:47:34;;;;;;;19.77;15.45;;;;;;;4.12;93.17;99916.78;4963178;28;20479;-71
2021/12/27 08:50:00;;;;;;;20.52;14.68;;;;;;;4.13;93.33;99903.81;4965059;28;20072;-71
2021/12/27 08:55:02;;;;;;;20.83;14.30;;;;;;;4.23;93.02;99909.84;5350499;23;20543;-71
2021/12/27 08:57:29;;;;;;;16.88;12.77;;;;;;;4.30;93.04;99906.38;5010532;28;20035;-71
2021/12/27 08:59:54;;;;;;;20.33;14.27;;;;;;;4.33;92.96;99914.16;5008334;28;20033;-70
2021/12/27 09:02:20;;;;;;;17.67;13.63;;;;;;;4.40;92.47;99907.25;4997265;28;20029;-70
2021/12/27 09:04:45;;;;;;;17.90;13.95;;;;;;;4.45;92.35;99897.75;4951401;28;20046;-71
2021/12/27 09:07:12;;;;;;;17.35;12.77;;;;;;;4.54;91.62;99893.38;4955377;28;20042;-71
2021/12/27 09:09:39;;;;;;;17.55;12.68;;;;;;;4.59;91.38;99887.31;4955393;28;20037;-71
2021/12/27 09:12:05;;;;;;;18.65;13.35;;;;;;;4.68;91.29;99879.50;4983379;28;20354;-70
2021/12/27 09:14:31;;;;;;;19.92;14.00;;;;;;;4.79;91.15;99863.88;4978619;28;20089;-71
2021/12/27 09:16:56;;;;;;;22.55;15.82;;;;;;;4.96;90.57;99871.63;4952441;28;20038;-70
2021/12/27 09:19:21;;;;;;;22.45;18.45;;;;;;;5.18;90.65;99867.16;4969445;28;20038;-71
2021/12/27 09:21:47;;;;;;;20.42;14.95;;;;;;;5.27;88.50;99870.59;4988797;28;20077;-71
2021/12/27 09:24:12;;;;;;;23.55;16.95;;;;;;;5.32;87.82;99874.88;4985928;28;20124;-71
2021/12/27 09:26:39;;;;;;;24.75;17.45;;;;;;;5.33;87.25;99880.94;4981786;28;20037;-71
2021/12/27 09:29:06;;;;;;;19.38;16.20;;;;;;;5.24;86.98;99884.44;4988781;28;20034;-71
2021/12/27 09:31:32;;;;;;;40.40;23.25;;;;;;;5.12;87.12;99887.97;4971885;28;20038;-71
2021/12/27 09:33:57;;;;;;;46.10;27.27;;;;;;;5.04;87.71;99889.75;4974968;28;20107;-71
2021/12/27 09:36:23;;;;;;;27.20;17.52;;;;;;;4.96;88.35;99891.53;4958480;28;20042;-71
2021/12/27 09:38:49;;;;;;;33.85;21.42;;;;;;;4.89;87.82;99892.44;4968519;28;20030;-71
2021/12/27 09:41:15;;;;;;;61.40;34.83;;;;;;;4.79;88.17;99900.22;4975417;28;20031;-71
2021/12/27 09:43:41;;;;;;;26.73;20.45;;;;;;;4.74;89.05;99902.00;4979115;28;20036;-71
2021/12/27 09:46:07;;;;;;;26.85;19.13;;;;;;;4.74;88.92;99896.81;4992881;28;20034;-71
2021/12/27 09:48:34;;;;;;;18.58;14.63;;;;;;;4.78;89.10;99898.50;4972709;28;20042;-71
2021/12/27 09:50:59;;;;;;;17.50;13.55;;;;;;;4.83;89.16;99883.78;4978850;28;20034;-71
2021/12/27 09:53:25;;;;;;;14.50;11.27;;;;;;;4.81;89.00;99887.25;4993530;28;20030;-71
2021/12/27 09:55:51;;;;;;;14.65;12.02;;;;;;;4.82;88.99;99883.78;4973188;28;20038;-72
2021/12/27 09:58:19;;;;;;;17.63;12.90;;;;;;;4.87;88.96;99876.84;4968534;28;20422;-71
2021/12/27 10:00:45;;;;;;;15.57;12.88;;;;;;;4.88;89.61;99870.78;4978759;28;20038;-71
2021/12/27 10:03:10;;;;;;;17.40;11.93;;;;;;;4.88;89.31;99864.72;4957472;28;20441;-71
2021/12/27 10:05:37;;;;;;;14.00;11.05;;;;;;;4.89;89.14;99871.66;4971864;28;20029;-71
2021/12/27 10:08:04;;;;;;;16.52;11.70;;;;;;;4.93;88.55;99871.63;4973843;28;20034;-71
2021/12/27 10:10:36;;;;;;;12.82;10.85;;;;;;;4.94;89.11;99856.91;4960117;28;20053;-71
2021/12/27 10:13:09;;;;;;;14.95;11.80;;;;;;;4.94;89.14;99862.09;4973082;28;20034;-70
2021/12/27 10:15:38;;;;;;;13.15;9.93;;;;;;;4.93;89.17;99855.16;4954498;28;20042;-71
2021/12/27 10:18:11;;;;;;;13.73;11.20;;;;;;;4.97;89.26;99852.56;4975494;28;20073;-71
2021/12/27 10:20:37;;;;;;;16.45;12.05;;;;;;;5.07;88.75;99861.19;4959502;28;20058;-71
2021/12/27 10:23:05;;;;;;;13.55;11.30;;;;;;;5.26;89.04;99837.69;4974094;28;20065;-71
2021/12/27 10:25:30;;;;;;;14.85;11.02;;;;;;;6.03;88.38;99831.94;4967678;28;20121;-70
2021/12/27 10:28:00;;;;;;;15.63;11.40;;;;;;;6.43;85.05;99809.88;4958285;28;20164;-71
2021/12/27 10:30:43;;;;;;;12.65;10.63;;;;;;;6.57;84.22;99807.97;4972900;28;20128;-70
2021/12/27 10:33:09;;;;;;;13.13;10.95;;;;;;;7.11;81.75;99812.44;4963696;28;20034;-71
2021/12/27 10:35:46;;;;;;;12.75;9.95;;;;;;;7.35;81.62;99815.59;4964170;28;20027;-71
2021/12/27 10:38:23;;;;;;;14.00;10.70;;;;;;;7.12;80.89;99829.81;4965421;28;20034;-71
2021/12/27 10:40:52;;;;;;;13.90;11.25;;;;;;;6.63;80.13;99827.84;4969297;28;20027;-71
2021/12/27 10:43:31;;;;;;;27.67;20.05;;;;;;;6.15;82.57;99837.03;4964355;28;20418;-72
2021/12/27 10:45:59;;;;;;;19.02;15.45;;;;;;;5.88;84.03;99838.13;4968930;28;20084;-71
2021/12/27 10:48:30;;;;;;;22.40;17.17;;;;;;;5.71;84.45;99836.50;4969555;28;20027;-71
2021/12/27 10:50:58;;;;;;;20.70;13.60;;;;;;;5.69;85.31;99832.22;4953239;28;20165;-72
2021/12/27 10:53:26;;;;;;;13.88;11.93;;;;;;;5.73;85.64;99833.88;4957963;28;20054;-71
2021/12/27 10:55:54;;;;;;;24.40;18.90;;;;;;;5.70;86.11;99833.91;4954469;28;20064;-71
2021/12/27 10:58:24;;;;;;;20.80;14.93;;;;;;;5.69;86.27;99833.06;4955632;28;20053;-71
2021/12/27 11:00:56;;;;;;;32.25;23.73;;;;;;;5.67;86.83;99833.94;4972565;28;20038;-71
2021/12/27 11:03:37;;;;;;;16.13;12.80;;;;;;;5.78;87.21;99829.53;4963975;28;20034;-71
2021/12/27 11:06:05;;;;;;;26.08;18.42;;;;;;;5.88;86.13;99827.72;4970598;28;20486;-71
2021/12/27 11:08:35;;;;;;;28.35;17.65;;;;;;;6.03;85.55;99826.72;4973333;28;20544;-72
2021/12/27 11:11:04;;;;;;;20.92;15.00;;;;;;;6.22;86.13;99823.09;4951193;28;20034;-72
2021/12/27 11:13:30;;;;;;;17.23;14.93;;;;;;;6.37;84.67;99809.03;4956948;28;20558;-71
2021/12/27 11:15:56;;;;;;;15.38;9.65;;;;;;;6.47;84.73;99809.81;4960618;28;20045;-71
2021/12/27 11:18:24;;;;;;;13.43;11.25;;;;;;;6.37;84.93;99806.44;4948114;28;20035;-71
2021/12/27 11:20:53;;;;;;;22.42;15.15;;;;;;;6.32;84.88;99812.56;4967747;28;20030;-71
2021/12/27 11:23:22;;;;;;;13.20;11.32;;;;;;;6.24;85.88;99810.91;4966811;28;20022;-72
2021/12/27 11:25:48;;;;;;;16.50;13.10;;;;;;;6.17;85.19;99803.19;4964564;28;20037;-71